sensor_id;sensor_type;location;lat;lon;timestamp;pressure;altitude;pressure_sealevel;temperature;humidity
24996;BME280;13016;52.162;21.034;2023-04-15T00:02:23;99626.87;;;15.60;53.00
24996;BME280;13016;52.162;21.034;2023-04-15T00:08:24;99620.92;;;15.76;52.76
24996;BME280;13016;52.162;21.034;2023-04-15T00:14:24;99628.10;;;15.52;53.87
24996;BME280;13016;52.162;21.034;2023-04-15T00:20:25;99630.02;;;15.55;54.97
24996;BME280;13016;52.162;21.034;2023-04-15T00:26:25;99626.45;;;15.45;56.56
24996;BME280;13016;52.162;21.034;2023-04-15T00:32:25;99615.24;;;15.24;57.62
24996;BME280;13016;52.162;21.034;2023-04-15T00:38:25;99622.92;;;15.08;57.67
24996;BME280;13016;52.162;21.034;2023-04-15T00:44:26;99620.04;;;15.05;57.88
24996;BME280;13016;52.162;21.034;2023-04-15T00:50:29;99611.79;;;14.95;58.21
24996;BME280;13016;52.162;21.034;2023-04-15T00:56:29;99614.71;;;14.93;57.82
24996;BME280;13016;52.162;21.034;2023-04-15T01:02:30;99616.10;;;14.84;58.00
24996;BME280;13016;52.162;21.034;2023-04-15T01:08:31;99619.83;;;14.76;58.58
24996;BME280;13016;52.162;21.034;2023-04-15T01:14:32;99617.92;;;15.07;58.91
24996;BME280;13016;52.162;21.034;2023-04-15T01:20:33;99615.35;;;15.10;59.48
24996;BME280;13016;52.162;21.034;2023-04-15T01:26:38;99619.15;;;15.23;59.44
24996;BME280;13016;52.162;21.034;2023-04-15T01:32:38;99616.06;;;15.19;59.95
24996;BME280;13016;52.162;21.034;2023-04-15T01:38:38;99614.42;;;15.01;60.75
24996;BME280;13016;52.162;21.034;2023-04-15T01:44:39;99616.25;;;15.02;60.80
24996;BME280;13016;52.162;21.034;2023-04-15T01:50:39;99616.46;;;14.92;61.26
24996;BME280;13016;52.162;21.034;2023-04-15T01:56:39;99615.63;;;14.83;61.35
24996;BME280;13016;52.162;21.034;2023-04-15T02:02:40;99616.71;;;14.97;61.12
24996;BME280;13016;52.162;21.034;2023-04-15T02:08:40;99615.38;;;14.94;61.18
24996;BME280;13016;52.162;21.034;2023-04-15T02:14:40;99611.67;;;14.96;61.24
24996;BME280;13016;52.162;21.034;2023-04-15T02:20:41;99612.55;;;14.92;61.47
24996;BME280;13016;52.162;21.034;2023-04-15T02:26:41;99608.84;;;14.88;61.88
24996;BME280;13016;52.162;21.034;2023-04-15T02:32:42;99611.39;;;14.83;62.32
24996;BME280;13016;52.162;21.034;2023-04-15T02:38:42;99611.05;;;14.77;62.46
24996;BME280;13016;52.162;21.034;2023-04-15T02:44:42;99603.38;;;14.79;62.37
24996;BME280;13016;52.162;21.034;2023-04-15T02:50:43;99603.45;;;14.73;62.89
24996;BME280;13016;52.162;21.034;2023-04-15T02:56:43;99601.52;;;14.67;63.21
24996;BME280;13016;52.162;21.034;2023-04-15T03:02:45;99602.68;;;14.54;63.71
24996;BME280;13016;52.162;21.034;2023-04-15T03:08:48;99603.46;;;14.65;63.83
24996;BME280;13016;52.162;21.034;2023-04-15T03:14:49;99602.47;;;14.47;64.25
24996;BME280;13016;52.162;21.034;2023-04-15T03:20:49;99603.26;;;14.51;64.68
24996;BME280;13016;52.162;21.034;2023-04-15T03:26:50;99606.17;;;14.62;64.53
24996;BME280;13016;52.162;21.034;2023-04-15T03:32:50;99599.67;;;14.58;64.30
24996;BME280;13016;52.162;21.034;2023-04-15T03:38:51;99601.88;;;14.67;64.33
24996;BME280;13016;52.162;21.034;2023-04-15T03:44:51;99605.52;;;14.58;64.37
24996;BME280;13016;52.162;21.034;2023-04-15T03:50:52;99606.02;;;14.48;64.48
24996;BME280;13016;52.162;21.034;2023-04-15T03:56:52;99611.11;;;14.57;64.36
24996;BME280;13016;52.162;21.034;2023-04-15T04:02:52;99611.08;;;14.65;64.42
24996;BME280;13016;52.162;21.034;2023-04-15T04:08:53;99616.28;;;14.57;64.47
24996;BME280;13016;52.162;21.034;2023-04-15T04:14:53;99619.63;;;14.63;64.73
24996;BME280;13016;52.162;21.034;2023-04-15T04:20:53;99619.33;;;14.54;65.16
24996;BME280;13016;52.162;21.034;2023-04-15T04:26:54;99615.34;;;14.51;65.42
24996;BME280;13016;52.162;21.034;2023-04-15T04:32:54;99614.60;;;14.60;65.51
24996;BME280;13016;52.162;21.034;2023-04-15T04:38:54;99617.39;;;14.56;65.54
24996;BME280;13016;52.162;21.034;2023-04-15T04:44:55;99618.95;;;14.53;65.64
24996;BME280;13016;52.162;21.034;2023-04-15T04:50:55;99613.83;;;14.38;66.17
24996;BME280;13016;52.162;21.034;2023-04-15T04:56:58;99614.63;;;14.51;66.08
24996;BME280;13016;52.162;21.034;2023-04-15T05:02:59;99613.27;;;14.55;66.06
24996;BME280;13016;52.162;21.034;2023-04-15T05:08:59;99614.44;;;14.51;66.16
24996;BME280;13016;52.162;21.034;2023-04-15T05:14:59;99617.67;;;14.47;66.10
24996;BME280;13016;52.162;21.034;2023-04-15T05:21:00;99620.89;;;14.43;66.18
24996;BME280;13016;52.162;21.034;2023-04-15T05:27:01;99621.10;;;14.43;66.33
24996;BME280;13016;52.162;21.034;2023-04-15T05:33:01;99625.10;;;14.33;66.97
24996;BME280;13016;52.162;21.034;2023-04-15T05:39:02;99622.39;;;14.10;67.96
24996;BME280;13016;52.162;21.034;2023-04-15T05:45:03;99626.63;;;14.12;68.19
24996;BME280;13016;52.162;21.034;2023-04-15T05:51:04;99626.06;;;14.09;68.45
24996;BME280;13016;52.162;21.034;2023-04-15T05:57:05;99625.41;;;14.10;68.47
24996;BME280;13016;52.162;21.034;2023-04-15T06:03:05;99628.50;;;14.11;68.55
24996;BME280;13016;52.162;21.034;2023-04-15T06:09:06;99631.36;;;14.09;68.68
24996;BME280;13016;52.162;21.034;2023-04-15T06:15:06;99636.27;;;14.07;68.86
24996;BME280;13016;52.162;21.034;2023-04-15T06:21:07;99639.71;;;14.31;68.06
24996;BME280;13016;52.162;21.034;2023-04-15T06:27:07;99639.73;;;14.31;67.70
24996;BME280;13016;52.162;21.034;2023-04-15T06:33:07;99641.64;;;14.27;67.97
24996;BME280;13016;52.162;21.034;2023-04-15T06:39:08;99646.36;;;14.34;67.89
24996;BME280;13016;52.162;21.034;2023-04-15T06:45:08;99650.55;;;14.37;67.76
24996;BME280;13016;52.162;21.034;2023-04-15T06:51:08;99654.98;;;14.50;67.43
24996;BME280;13016;52.162;21.034;2023-04-15T06:57:09;99660.85;;;14.42;67.52
24996;BME280;13016;52.162;21.034;2023-04-15T07:03:11;99662.50;;;14.48;67.58
24996;BME280;13016;52.162;21.034;2023-04-15T07:09:11;99670.95;;;14.45;67.48
24996;BME280;13016;52.162;21.034;2023-04-15T07:15:11;99679.15;;;14.50;67.54
24996;BME280;13016;52.162;21.034;2023-04-15T07:21:12;99678.39;;;14.39;67.71
24996;BME280;13016;52.162;21.034;2023-04-15T07:27:12;99678.20;;;14.45;67.71
24996;BME280;13016;52.162;21.034;2023-04-15T07:33:13;99682.40;;;14.38;67.74
24996;BME280;13016;52.162;21.034;2023-04-15T07:39:13;99683.92;;;14.32;67.98
24996;BME280;13016;52.162;21.034;2023-04-15T07:45:14;99684.87;;;14.42;68.15
24996;BME280;13016;52.162;21.034;2023-04-15T07:51:14;99678.13;;;14.46;67.94
24996;BME280;13016;52.162;21.034;2023-04-15T07:57:14;99677.98;;;14.49;67.93
24996;BME280;13016;52.162;21.034;2023-04-15T08:03:15;99681.17;;;14.51;67.78
24996;BME280;13016;52.162;21.034;2023-04-15T08:09:15;99677.88;;;14.47;68.07
24996;BME280;13016;52.162;21.034;2023-04-15T08:15:16;99677.59;;;14.58;68.02
24996;BME280;13016;52.162;21.034;2023-04-15T08:21:17;99684.59;;;14.65;67.53
24996;BME280;13016;52.162;21.034;2023-04-15T08:27:18;99679.69;;;14.56;67.57
24996;BME280;13016;52.162;21.034;2023-04-15T08:33:18;99684.27;;;14.62;67.74
24996;BME280;13016;52.162;21.034;2023-04-15T08:39:18;99687.08;;;14.63;67.75
24996;BME280;13016;52.162;21.034;2023-04-15T08:45:19;99685.40;;;14.72;67.74
24996;BME280;13016;52.162;21.034;2023-04-15T08:51:23;99688.00;;;14.68;67.71
24996;BME280;13016;52.162;21.034;2023-04-15T08:57:26;99689.63;;;14.70;67.86
24996;BME280;13016;52.162;21.034;2023-04-15T09:03:27;99687.46;;;14.78;67.96
24996;BME280;13016;52.162;21.034;2023-04-15T09:09:28;99687.11;;;14.78;68.00
24996;BME280;13016;52.162;21.034;2023-04-15T09:15:29;99688.66;;;14.95;68.01
24996;BME280;13016;52.162;21.034;2023-04-15T09:21:30;99693.23;;;15.01;67.61
24996;BME280;13016;52.162;21.034;2023-04-15T09:27:35;99691.17;;;15.16;67.70
24996;BME280;13016;52.162;21.034;2023-04-15T09:33:53;99697.25;;;15.16;67.49
24996;BME280;13016;52.162;21.034;2023-04-15T09:39:54;99697.23;;;15.04;67.67
24996;BME280;13016;52.162;21.034;2023-04-15T09:45:54;99700.80;;;14.98;68.04
24996;BME280;13016;52.162;21.034;2023-04-15T09:52:02;99705.33;;;15.18;68.02
24996;BME280;13016;52.162;21.034;2023-04-15T09:58:08;99709.82;;;15.26;67.64
24996;BME280;13016;52.162;21.034;2023-04-15T10:04:13;99713.81;;;15.32;67.64
24996;BME280;13016;52.162;21.034;2023-04-15T10:10:14;99712.43;;;15.34;67.77
24996;BME280;13016;52.162;21.034;2023-04-15T10:16:18;99710.83;;;15.42;67.70
24996;BME280;13016;52.162;21.034;2023-04-15T10:22:22;99710.36;;;15.39;67.65
24996;BME280;13016;52.162;21.034;2023-04-15T10:28:22;99710.69;;;15.36;67.73
24996;BME280;13016;52.162;21.034;2023-04-15T10:34:28;99707.23;;;15.31;67.77
24996;BME280;13016;52.162;21.034;2023-04-15T10:40:30;99712.37;;;15.37;67.92
24996;BME280;13016;52.162;21.034;2023-04-15T10:46:39;99717.70;;;15.33;67.70
24996;BME280;13016;52.162;21.034;2023-04-15T10:52:40;99719.47;;;15.19;68.20
24996;BME280;13016;52.162;21.034;2023-04-15T10:58:44;99722.35;;;15.40;68.16
24996;BME280;13016;52.162;21.034;2023-04-15T11:04:52;99723.43;;;15.48;67.92
24996;BME280;13016;52.162;21.034;2023-04-15T11:10:54;99723.75;;;15.62;67.91
24996;BME280;13016;52.162;21.034;2023-04-15T11:16:59;99725.25;;;15.59;67.46
24996;BME280;13016;52.162;21.034;2023-04-15T11:22:59;99729.99;;;15.58;67.32
24996;BME280;13016;52.162;21.034;2023-04-15T11:29:00;99733.91;;;15.56;67.23
24996;BME280;13016;52.162;21.034;2023-04-15T11:35:00;99735.69;;;15.75;67.59
24996;BME280;13016;52.162;21.034;2023-04-15T11:41:00;99737.95;;;15.79;67.42
24996;BME280;13016;52.162;21.034;2023-04-15T11:47:01;99743.79;;;15.98;67.74
24996;BME280;13016;52.162;21.034;2023-04-15T11:53:04;99743.33;;;16.11;67.68
24996;BME280;13016;52.162;21.034;2023-04-15T11:59:05;99749.05;;;16.29;67.83
24996;BME280;13016;52.162;21.034;2023-04-15T12:05:07;99753.92;;;16.34;67.30
24996;BME280;13016;52.162;21.034;2023-04-15T12:11:07;99760.64;;;16.26;66.61
24996;BME280;13016;52.162;21.034;2023-04-15T12:17:09;99765.19;;;15.86;66.55
24996;BME280;13016;52.162;21.034;2023-04-15T12:23:10;99770.66;;;15.64;65.17
24996;BME280;13016;52.162;21.034;2023-04-15T12:29:11;99779.37;;;15.72;63.87
24996;BME280;13016;52.162;21.034;2023-04-15T12:35:12;99781.09;;;15.80;63.79
24996;BME280;13016;52.162;21.034;2023-04-15T12:41:13;99785.48;;;15.90;64.51
24996;BME280;13016;52.162;21.034;2023-04-15T12:47:13;99789.34;;;16.02;64.47
24996;BME280;13016;52.162;21.034;2023-04-15T12:53:13;99791.96;;;16.25;64.55
24996;BME280;13016;52.162;21.034;2023-04-15T12:59:15;99792.75;;;16.32;62.50
24996;BME280;13016;52.162;21.034;2023-04-15T13:05:16;99795.55;;;16.32;61.84
24996;BME280;13016;52.162;21.034;2023-04-15T13:11:16;99799.79;;;16.40;61.58
24996;BME280;13016;52.162;21.034;2023-04-15T13:17:17;99807.72;;;16.51;58.97
24996;BME280;13016;52.162;21.034;2023-04-15T13:23:17;99819.95;;;16.51;58.49
24996;BME280;13016;52.162;21.034;2023-04-15T13:29:18;99824.41;;;16.47;58.83
24996;BME280;13016;52.162;21.034;2023-04-15T13:35:19;99829.63;;;16.45;58.91
24996;BME280;13016;52.162;21.034;2023-04-15T13:41:19;99832.77;;;16.51;58.64
24996;BME280;13016;52.162;21.034;2023-04-15T13:47:20;99835.77;;;16.72;59.74
24996;BME280;13016;52.162;21.034;2023-04-15T13:53:20;99843.23;;;16.79;59.83
24996;BME280;13016;52.162;21.034;2023-04-15T13:59:20;99839.02;;;16.59;59.35
24996;BME280;13016;52.162;21.034;2023-04-15T14:05:21;99841.02;;;16.77;59.46
24996;BME280;13016;52.162;21.034;2023-04-15T14:11:21;99836.74;;;16.78;59.29
24996;BME280;13016;52.162;21.034;2023-04-15T14:17:22;99848.55;;;16.70;58.41
24996;BME280;13016;52.162;21.034;2023-04-15T14:23:22;99853.77;;;16.57;58.42
24996;BME280;13016;52.162;21.034;2023-04-15T14:29:23;99849.66;;;16.85;58.47
24996;BME280;13016;52.162;21.034;2023-04-15T14:35:23;99854.52;;;16.90;58.22
24996;BME280;13016;52.162;21.034;2023-04-15T14:41:24;99851.14;;;16.81;58.09
24996;BME280;13016;52.162;21.034;2023-04-15T14:47:24;99860.02;;;16.92;58.08
24996;BME280;13016;52.162;21.034;2023-04-15T14:53:26;99860.08;;;16.71;58.40
24996;BME280;13016;52.162;21.034;2023-04-15T14:59:26;99874.27;;;16.86;58.04
24996;BME280;13016;52.162;21.034;2023-04-15T15:05:27;99875.77;;;16.86;57.89
24996;BME280;13016;52.162;21.034;2023-04-15T15:11:27;99884.64;;;16.73;57.31
24996;BME280;13016;52.162;21.034;2023-04-15T15:17:30;99886.23;;;16.75;56.87
24996;BME280;13016;52.162;21.034;2023-04-15T15:23:30;99894.77;;;16.98;56.20
24996;BME280;13016;52.162;21.034;2023-04-15T15:29:31;99897.77;;;17.03;56.10
24996;BME280;13016;52.162;21.034;2023-04-15T15:35:31;99897.77;;;16.88;55.86
24996;BME280;13016;52.162;21.034;2023-04-15T15:41:31;99898.66;;;16.89;55.98
24996;BME280;13016;52.162;21.034;2023-04-15T15:47:32;99903.13;;;16.90;55.70
24996;BME280;13016;52.162;21.034;2023-04-15T15:53:33;99904.54;;;16.83;55.70
24996;BME280;13016;52.162;21.034;2023-04-15T15:59:35;99905.41;;;16.87;55.53
24996;BME280;13016;52.162;21.034;2023-04-15T16:05:37;99916.23;;;16.72;55.40
24996;BME280;13016;52.162;21.034;2023-04-15T16:11:38;99926.67;;;16.66;55.19
24996;BME280;13016;52.162;21.034;2023-04-15T16:17:38;99931.41;;;16.53;55.03
24996;BME280;13016;52.162;21.034;2023-04-15T16:23:39;99936.50;;;16.44;55.37
24996;BME280;13016;52.162;21.034;2023-04-15T16:29:39;99940.60;;;16.50;56.10
24996;BME280;13016;52.162;21.034;2023-04-15T16:35:40;99948.98;;;16.44;55.88
24996;BME280;13016;52.162;21.034;2023-04-15T16:41:40;99957.65;;;16.54;55.69
24996;BME280;13016;52.162;21.034;2023-04-15T16:47:41;99966.66;;;16.55;55.74
24996;BME280;13016;52.162;21.034;2023-04-15T16:53:41;99976.57;;;16.24;56.59
24996;BME280;13016;52.162;21.034;2023-04-15T16:59:57;99981.95;;;15.96;57.28
24996;BME280;13016;52.162;21.034;2023-04-15T17:05:57;99988.95;;;16.04;57.62
24996;BME280;13016;52.162;21.034;2023-04-15T17:11:58;99998.23;;;15.85;58.71
24996;BME280;13016;52.162;21.034;2023-04-15T17:17:58;100003.40;;;15.71;59.22
24996;BME280;13016;52.162;21.034;2023-04-15T17:23:59;100012.43;;;15.64;59.58
24996;BME280;13016;52.162;21.034;2023-04-15T17:29:59;100017.59;;;15.43;60.02
24996;BME280;13016;52.162;21.034;2023-04-15T17:36:00;100014.72;;;15.50;60.05
24996;BME280;13016;52.162;21.034;2023-04-15T17:42:00;100022.30;;;15.47;59.65
24996;BME280;13016;52.162;21.034;2023-04-15T17:48:02;100035.72;;;15.31;59.84
24996;BME280;13016;52.162;21.034;2023-04-15T17:54:02;100050.33;;;15.20;60.07
24996;BME280;13016;52.162;21.034;2023-04-15T18:00:04;100062.29;;;15.28;59.91
24996;BME280;13016;52.162;21.034;2023-04-15T18:06:07;100072.88;;;15.23;59.47
24996;BME280;13016;52.162;21.034;2023-04-15T18:12:07;100085.50;;;15.23;59.21
24996;BME280;13016;52.162;21.034;2023-04-15T18:18:27;100092.77;;;15.16;59.31
24996;BME280;13016;52.162;21.034;2023-04-15T18:24:28;100099.03;;;15.24;59.29
24996;BME280;13016;52.162;21.034;2023-04-15T18:30:30;100112.36;;;15.20;58.94
24996;BME280;13016;52.162;21.034;2023-04-15T18:36:33;100121.36;;;15.44;58.36
24996;BME280;13016;52.162;21.034;2023-04-15T18:42:42;100126.45;;;15.41;57.87
24996;BME280;13016;52.162;21.034;2023-04-15T18:48:43;100127.42;;;15.23;58.07
24996;BME280;13016;52.162;21.034;2023-04-15T18:54:47;100127.04;;;15.08;58.41
24996;BME280;13016;52.162;21.034;2023-04-15T19:00:47;100128.84;;;15.08;58.98
24996;BME280;13016;52.162;21.034;2023-04-15T19:06:48;100128.34;;;14.93;59.11
24996;BME280;13016;52.162;21.034;2023-04-15T19:12:48;100133.65;;;14.76;59.50
24996;BME280;13016;52.162;21.034;2023-04-15T19:18:49;100143.42;;;14.61;59.78
24996;BME280;13016;52.162;21.034;2023-04-15T19:24:50;100153.33;;;14.72;59.44
24996;BME280;13016;52.162;21.034;2023-04-15T19:30:50;100164.27;;;14.72;59.45
24996;BME280;13016;52.162;21.034;2023-04-15T19:36:51;100164.45;;;14.62;59.55
24996;BME280;13016;52.162;21.034;2023-04-15T19:42:51;100169.23;;;14.66;59.69
24996;BME280;13016;52.162;21.034;2023-04-15T19:48:53;100178.01;;;14.57;59.72
24996;BME280;13016;52.162;21.034;2023-04-15T19:54:53;100185.26;;;14.70;59.38
24996;BME280;13016;52.162;21.034;2023-04-15T20:00:53;100189.27;;;14.55;59.40
24996;BME280;13016;52.162;21.034;2023-04-15T20:06:54;100197.90;;;14.65;59.31
24996;BME280;13016;52.162;21.034;2023-04-15T20:12:54;100199.07;;;14.83;59.23
24996;BME280;13016;52.162;21.034;2023-04-15T20:18:54;100198.58;;;14.76;59.08
24996;BME280;13016;52.162;21.034;2023-04-15T20:24:55;100201.56;;;14.83;59.17
24996;BME280;13016;52.162;21.034;2023-04-15T20:30:55;100203.17;;;14.70;59.06
24996;BME280;13016;52.162;21.034;2023-04-15T20:36:55;100201.45;;;14.69;59.15
24996;BME280;13016;52.162;21.034;2023-04-15T20:42:56;100197.61;;;14.64;59.16
24996;BME280;13016;52.162;21.034;2023-04-15T20:48:57;100198.61;;;14.78;59.20
24996;BME280;13016;52.162;21.034;2023-04-15T20:54:59;100194.15;;;14.72;59.28
24996;BME280;13016;52.162;21.034;2023-04-15T21:01:00;100201.58;;;14.44;59.80
24996;BME280;13016;52.162;21.034;2023-04-15T21:07:00;100202.48;;;14.46;60.16
24996;BME280;13016;52.162;21.034;2023-04-15T21:13:01;100207.63;;;14.39;60.25
24996;BME280;13016;52.162;21.034;2023-04-15T21:19:04;100211.53;;;14.37;60.46
24996;BME280;13016;52.162;21.034;2023-04-15T21:25:04;100209.39;;;14.26;60.29
24996;BME280;13016;52.162;21.034;2023-04-15T21:31:05;100214.88;;;14.42;60.36
24996;BME280;13016;52.162;21.034;2023-04-15T21:37:05;100215.15;;;14.45;60.16
24996;BME280;13016;52.162;21.034;2023-04-15T21:43:06;100217.66;;;14.47;60.09
24996;BME280;13016;52.162;21.034;2023-04-15T21:49:07;100219.66;;;14.53;60.09
24996;BME280;13016;52.162;21.034;2023-04-15T21:55:07;100220.23;;;14.41;60.26
24996;BME280;13016;52.162;21.034;2023-04-15T22:01:08;100224.61;;;14.33;60.43
24996;BME280;13016;52.162;21.034;2023-04-15T22:07:08;100224.70;;;14.27;60.57
24996;BME280;13016;52.162;21.034;2023-04-15T22:13:08;100237.26;;;14.30;60.85
24996;BME280;13016;52.162;21.034;2023-04-15T22:19:09;100240.69;;;14.18;60.67
24996;BME280;13016;52.162;21.034;2023-04-15T22:25:11;100247.33;;;14.28;61.02
24996;BME280;13016;52.162;21.034;2023-04-15T22:31:12;100253.38;;;14.40;61.09
24996;BME280;13016;52.162;21.034;2023-04-15T22:37:12;100262.48;;;14.37;60.82
24996;BME280;13016;52.162;21.034;2023-04-15T22:43:13;100266.55;;;14.16;61.08
24996;BME280;13016;52.162;21.034;2023-04-15T22:49:13;100271.80;;;14.12;61.40
24996;BME280;13016;52.162;21.034;2023-04-15T22:55:14;100275.73;;;14.10;61.67
24996;BME280;13016;52.162;21.034;2023-04-15T23:01:15;100277.62;;;14.15;61.46
24996;BME280;13016;52.162;21.034;2023-04-15T23:07:15;100278.84;;;14.13;61.63
24996;BME280;13016;52.162;21.034;2023-04-15T23:13:16;100282.29;;;14.14;61.71
24996;BME280;13016;52.162;21.034;2023-04-15T23:19:16;100277.39;;;14.16;61.76
24996;BME280;13016;52.162;21.034;2023-04-15T23:25:16;100274.91;;;14.25;61.52
24996;BME280;13016;52.162;21.034;2023-04-15T23:31:17;100277.98;;;14.22;61.45
24996;BME280;13016;52.162;21.034;2023-04-15T23:37:17;100276.76;;;14.19;61.85
24996;BME280;13016;52.162;21.034;2023-04-15T23:43:18;100283.10;;;14.18;61.90
24996;BME280;13016;52.162;21.034;2023-04-15T23:49:18;100283.20;;;14.14;62.35
24996;BME280;13016;52.162;21.034;2023-04-15T23:55:18;100286.06;;;14.18;62.36
